AAL9 KPWM-KPHL
Flight info
| Callsign | AAL9 |
|---|---|
| Flight time | 1h 5m |
| Altitude | 34000 |
| Route | NUBLE4 JJIMY ORW RIFLE Q439 BRIGS JIIMS4 |
| Aircraft | B738/M-SABDFGLRVWY/LB2 |
Departure
| Time | 2026-05-05 00:25 |
|---|---|
| Airport | Portland International Jetport (KPWM) |
Arrival
| Time | 2026-05-05 01:30 |
|---|---|
| Airport | Philadelphia International Airport (KPHL) |
| Time | Latitude | Longitude | Altitude | Speed | Heading |
|---|---|---|---|---|---|
| 2026-05-05 00:01 | 43.64674 | -70.31171 | 64 ft | 0 kts | 16° |
| 2026-05-05 00:15 | 43.64670 | -70.31173 | 65 ft | 2 kts | 18° |
| 2026-05-05 00:15 | 43.64657 | -70.31184 | 65 ft | 2 kts | 48° |
| 2026-05-05 00:15 | 43.64649 | -70.31201 | 65 ft | 2 kts | 70° |
| 2026-05-05 00:15 | 43.64646 | -70.31221 | 66 ft | 2 kts | 94° |
| 2026-05-05 00:16 | 43.64649 | -70.31241 | 66 ft | 1 kts | 97° |
| 2026-05-05 00:16 | 43.64649 | -70.31245 | 66 ft | 0 kts | 96° |
| 2026-05-05 00:21 | 43.64645 | -70.31234 | 66 ft | 5 kts | 127° |
| 2026-05-05 00:21 | 43.64600 | -70.31149 | 64 ft | 12 kts | 104° |
| 2026-05-05 00:21 | 43.64591 | -70.31020 | 62 ft | 14 kts | 96° |
| 2026-05-05 00:22 | 43.64580 | -70.30867 | 59 ft | 17 kts | 95° |
| 2026-05-05 00:22 | 43.64567 | -70.30687 | 52 ft | 20 kts | 95° |
| 2026-05-05 00:22 | 43.64557 | -70.30526 | 49 ft | 16 kts | 95° |
| 2026-05-05 00:22 | 43.64574 | -70.30363 | 44 ft | 18 kts | 73° |
| 2026-05-05 00:23 | 43.64582 | -70.30172 | 37 ft | 19 kts | 96° |
| 2026-05-05 00:23 | 43.64570 | -70.30004 | 32 ft | 16 kts | 96° |
| 2026-05-05 00:23 | 43.64501 | -70.29919 | 30 ft | 14 kts | 175° |
| 2026-05-05 00:23 | 43.64418 | -70.29929 | 32 ft | 9 kts | 229° |
| 2026-05-05 00:24 | 43.64410 | -70.29974 | 33 ft | 0 kts | 271° |
| 2026-05-05 00:24 | 43.64413 | -70.30040 | 35 ft | 33 kts | 275° |
| 2026-05-05 00:24 | 43.64459 | -70.30714 | 54 ft | 106 kts | 275° |
| 2026-05-05 00:24 | 43.64544 | -70.32004 | 211 ft | 151 kts | 275° |
| 2026-05-05 00:25 | 43.64669 | -70.33508 | 734 ft | 169 kts | 274° |
| 2026-05-05 00:25 | 43.64738 | -70.35094 | 1608 ft | 170 kts | 269° |
| 2026-05-05 00:25 | 43.64766 | -70.36718 | 2312 ft | 175 kts | 269° |
| 2026-05-05 00:25 | 43.64825 | -70.38439 | 2930 ft | 186 kts | 271° |
| 2026-05-05 00:26 | 43.64911 | -70.40252 | 3487 ft | 200 kts | 272° |
| 2026-05-05 00:26 | 43.65005 | -70.42239 | 4081 ft | 215 kts | 272° |
| 2026-05-05 00:26 | 43.64938 | -70.44344 | 4668 ft | 229 kts | 257° |
| 2026-05-05 00:26 | 43.64175 | -70.46316 | 5279 ft | 247 kts | 229° |
| 2026-05-05 00:27 | 43.62807 | -70.47751 | 6053 ft | 255 kts | 218° |
| 2026-05-05 00:27 | 43.61286 | -70.49064 | 6827 ft | 261 kts | 217° |
| 2026-05-05 00:27 | 43.59747 | -70.50402 | 7588 ft | 266 kts | 218° |
| 2026-05-05 00:27 | 43.58189 | -70.51799 | 8381 ft | 268 kts | 219° |
| 2026-05-05 00:28 | 43.56646 | -70.53204 | 9150 ft | 273 kts | 220° |
| 2026-05-05 00:28 | 43.55059 | -70.54662 | 10000 ft | 275 kts | 220° |
| 2026-05-05 00:28 | 43.53475 | -70.56122 | 10706 ft | 285 kts | 219° |
| 2026-05-05 00:28 | 43.51670 | -70.57503 | 11108 ft | 305 kts | 209° |
| 2026-05-05 00:29 | 43.49622 | -70.58523 | 11456 ft | 324 kts | 203° |
| 2026-05-05 00:29 | 43.47391 | -70.59386 | 11985 ft | 338 kts | 201° |
| 2026-05-05 00:29 | 43.45107 | -70.60216 | 12710 ft | 344 kts | 201° |
| 2026-05-05 00:29 | 43.42802 | -70.61074 | 13496 ft | 348 kts | 201° |
| 2026-05-05 00:30 | 43.40477 | -70.61974 | 14276 ft | 352 kts | 202° |
| 2026-05-05 00:30 | 43.38134 | -70.62905 | 15061 ft | 356 kts | 202° |
| 2026-05-05 00:30 | 43.35748 | -70.63868 | 15865 ft | 360 kts | 202° |
| 2026-05-05 00:30 | 43.33338 | -70.64848 | 16634 ft | 364 kts | 202° |
| 2026-05-05 00:31 | 43.30897 | -70.65843 | 17380 ft | 369 kts | 202° |
| 2026-05-05 00:31 | 43.28432 | -70.66850 | 18119 ft | 373 kts | 202° |
| 2026-05-05 00:31 | 43.25961 | -70.67858 | 18826 ft | 378 kts | 202° |
| 2026-05-05 00:31 | 43.23437 | -70.68886 | 19572 ft | 381 kts | 202° |
| 2026-05-05 00:32 | 43.20864 | -70.69933 | 20245 ft | 386 kts | 202° |
| 2026-05-05 00:32 | 43.18321 | -70.70997 | 20932 ft | 389 kts | 204° |
| 2026-05-05 00:32 | 43.15773 | -70.72312 | 21644 ft | 390 kts | 209° |
| 2026-05-05 00:32 | 43.13330 | -70.73860 | 22226 ft | 393 kts | 212° |
| 2026-05-05 00:33 | 43.10909 | -70.75554 | 22845 ft | 396 kts | 213° |
| 2026-05-05 00:33 | 43.08456 | -70.77339 | 23496 ft | 400 kts | 214° |
| 2026-05-05 00:33 | 43.06012 | -70.79134 | 24107 ft | 404 kts | 214° |
| 2026-05-05 00:33 | 43.03529 | -70.80955 | 24692 ft | 408 kts | 214° |
| 2026-05-05 00:34 | 43.01017 | -70.82784 | 25234 ft | 413 kts | 214° |
| 2026-05-05 00:34 | 42.98480 | -70.84624 | 25712 ft | 419 kts | 214° |
| 2026-05-05 00:34 | 42.95898 | -70.86484 | 26308 ft | 421 kts | 214° |
| 2026-05-05 00:34 | 42.93288 | -70.88356 | 26766 ft | 427 kts | 214° |
| 2026-05-05 00:35 | 42.90649 | -70.90243 | 27304 ft | 430 kts | 214° |
| 2026-05-05 00:35 | 42.87999 | -70.92133 | 27808 ft | 433 kts | 214° |
| 2026-05-05 00:35 | 42.85318 | -70.94039 | 28224 ft | 438 kts | 213° |
| 2026-05-05 00:35 | 42.82569 | -70.95872 | 28699 ft | 444 kts | 210° |
| 2026-05-05 00:36 | 42.79721 | -70.97485 | 29119 ft | 451 kts | 207° |
| 2026-05-05 00:36 | 42.76774 | -70.98972 | 29704 ft | 452 kts | 206° |
| 2026-05-05 00:36 | 42.73790 | -71.00388 | 30388 ft | 450 kts | 205° |
| 2026-05-05 00:36 | 42.70855 | -71.01755 | 30931 ft | 450 kts | 205° |
| 2026-05-05 00:37 | 42.67915 | -71.03123 | 31465 ft | 450 kts | 205° |
| 2026-05-05 00:37 | 42.64957 | -71.04509 | 31928 ft | 451 kts | 206° |
| 2026-05-05 00:37 | 42.61985 | -71.05915 | 32374 ft | 453 kts | 206° |
| 2026-05-05 00:37 | 42.59028 | -71.07324 | 32881 ft | 452 kts | 206° |
| 2026-05-05 00:38 | 42.56053 | -71.08748 | 33364 ft | 452 kts | 206° |
| 2026-05-05 00:38 | 42.53091 | -71.10170 | 33759 ft | 454 kts | 206° |
| 2026-05-05 00:38 | 42.50090 | -71.11618 | 33884 ft | 459 kts | 206° |
| 2026-05-05 00:39 | 42.44164 | -71.14586 | 33881 ft | 449 kts | 210° |
| 2026-05-05 00:39 | 42.38733 | -71.18524 | 33881 ft | 443 kts | 220° |
| 2026-05-05 00:40 | 42.33751 | -71.23262 | 33880 ft | 437 kts | 224° |
| 2026-05-05 00:40 | 42.28869 | -71.28216 | 33890 ft | 440 kts | 224° |
| 2026-05-05 00:41 | 42.23996 | -71.33147 | 33892 ft | 436 kts | 224° |
| 2026-05-05 00:41 | 42.19138 | -71.38004 | 33895 ft | 439 kts | 223° |
| 2026-05-05 00:42 | 42.14213 | -71.42886 | 33909 ft | 440 kts | 223° |
| 2026-05-05 00:42 | 42.09286 | -71.47740 | 33912 ft | 440 kts | 223° |
| 2026-05-05 00:43 | 42.04359 | -71.52581 | 33915 ft | 442 kts | 223° |
| 2026-05-05 00:43 | 41.99405 | -71.57433 | 33922 ft | 439 kts | 223° |
| 2026-05-05 00:44 | 41.94467 | -71.62263 | 33920 ft | 441 kts | 223° |
| 2026-05-05 00:44 | 41.89527 | -71.67083 | 33921 ft | 441 kts | 222° |
| 2026-05-05 00:45 | 41.84578 | -71.71900 | 33929 ft | 440 kts | 222° |
| 2026-05-05 00:45 | 41.79621 | -71.76715 | 33920 ft | 440 kts | 222° |
| 2026-05-05 00:46 | 41.74672 | -71.81518 | 33927 ft | 441 kts | 222° |
| 2026-05-05 00:46 | 41.69734 | -71.86299 | 33932 ft | 440 kts | 222° |
| 2026-05-05 00:47 | 41.64774 | -71.91095 | 33928 ft | 441 kts | 222° |
| 2026-05-05 00:47 | 41.59827 | -71.95866 | 33934 ft | 441 kts | 222° |
| 2026-05-05 00:48 | 41.54786 | -72.00519 | 33932 ft | 444 kts | 217° |
| 2026-05-05 00:48 | 41.49356 | -72.04501 | 33932 ft | 448 kts | 212° |
| 2026-05-05 00:49 | 41.43835 | -72.08160 | 33614 ft | 437 kts | 212° |
| 2026-05-05 00:49 | 41.41143 | -72.09919 | 33346 ft | 428 kts | 212° |
| 2026-05-05 00:49 | 41.38493 | -72.11659 | 33081 ft | 421 kts | 212° |
| 2026-05-05 00:49 | 41.35900 | -72.13378 | 32818 ft | 420 kts | 212° |
| 2026-05-05 00:50 | 41.33261 | -72.15144 | 32554 ft | 423 kts | 213° |
| 2026-05-05 00:50 | 41.30654 | -72.16898 | 32289 ft | 422 kts | 213° |
| 2026-05-05 00:50 | 41.28049 | -72.18656 | 32027 ft | 423 kts | 213° |
| 2026-05-05 00:50 | 41.25407 | -72.20439 | 31760 ft | 423 kts | 213° |
| 2026-05-05 00:51 | 41.22822 | -72.22182 | 31497 ft | 422 kts | 213° |
| 2026-05-05 00:51 | 41.20195 | -72.23953 | 31229 ft | 423 kts | 213° |
| 2026-05-05 00:51 | 41.17591 | -72.25708 | 30965 ft | 421 kts | 213° |
| 2026-05-05 00:51 | 41.14971 | -72.27473 | 30694 ft | 420 kts | 213° |
| 2026-05-05 00:52 | 41.12364 | -72.29226 | 30421 ft | 421 kts | 213° |
| 2026-05-05 00:52 | 41.09756 | -72.30979 | 30146 ft | 421 kts | 213° |
| 2026-05-05 00:52 | 41.07149 | -72.32729 | 29944 ft | 420 kts | 213° |
| 2026-05-05 00:53 | 41.01948 | -72.36217 | 29945 ft | 423 kts | 212° |
| 2026-05-05 00:53 | 40.96714 | -72.39721 | 29954 ft | 424 kts | 212° |
| 2026-05-05 00:54 | 40.91427 | -72.43253 | 29956 ft | 425 kts | 212° |
| 2026-05-05 00:54 | 40.86170 | -72.46757 | 29960 ft | 423 kts | 212° |
| 2026-05-05 00:54 | 40.83551 | -72.48500 | 29726 ft | 421 kts | 212° |
| 2026-05-05 00:55 | 40.80975 | -72.50211 | 29489 ft | 415 kts | 212° |
| 2026-05-05 00:55 | 40.75734 | -72.53701 | 29494 ft | 426 kts | 212° |
| 2026-05-05 00:56 | 40.70556 | -72.57329 | 29443 ft | 416 kts | 217° |
| 2026-05-05 00:56 | 40.68222 | -72.59453 | 29154 ft | 405 kts | 223° |
| 2026-05-05 00:56 | 40.66083 | -72.61836 | 28703 ft | 405 kts | 227° |
| 2026-05-05 00:56 | 40.64035 | -72.64384 | 28097 ft | 403 kts | 230° |
| 2026-05-05 00:57 | 40.62072 | -72.66961 | 27424 ft | 404 kts | 230° |
| 2026-05-05 00:57 | 40.60098 | -72.69598 | 26844 ft | 404 kts | 230° |
| 2026-05-05 00:57 | 40.58152 | -72.72198 | 26413 ft | 398 kts | 230° |
| 2026-05-05 00:57 | 40.56225 | -72.74758 | 25939 ft | 392 kts | 230° |
| 2026-05-05 00:58 | 40.54293 | -72.77312 | 25455 ft | 387 kts | 230° |
| 2026-05-05 00:58 | 40.52400 | -72.79802 | 24974 ft | 387 kts | 229° |
| 2026-05-05 00:58 | 40.50475 | -72.82265 | 24484 ft | 391 kts | 228° |
| 2026-05-05 00:58 | 40.48519 | -72.84665 | 23988 ft | 387 kts | 227° |
| 2026-05-05 00:59 | 40.46535 | -72.87047 | 23498 ft | 383 kts | 227° |
| 2026-05-05 00:59 | 40.44594 | -72.89359 | 23023 ft | 378 kts | 226° |
| 2026-05-05 00:59 | 40.42642 | -72.91682 | 22529 ft | 374 kts | 227° |
| 2026-05-05 00:59 | 40.40752 | -72.93936 | 22060 ft | 370 kts | 226° |
| 2026-05-05 01:00 | 40.38821 | -72.96253 | 21596 ft | 387 kts | 227° |
| 2026-05-05 01:00 | 40.36791 | -72.98704 | 21074 ft | 411 kts | 226° |
| 2026-05-05 01:00 | 40.34660 | -73.01277 | 20519 ft | 419 kts | 226° |
| 2026-05-05 01:00 | 40.32544 | -73.03816 | 20033 ft | 414 kts | 226° |
| 2026-05-05 01:01 | 40.30423 | -73.06349 | 19952 ft | 410 kts | 226° |
| 2026-05-05 01:01 | 40.28299 | -73.08885 | 19966 ft | 416 kts | 226° |
| 2026-05-05 01:01 | 40.26165 | -73.11435 | 19956 ft | 414 kts | 226° |
| 2026-05-05 01:01 | 40.24056 | -73.13954 | 19959 ft | 414 kts | 226° |
| 2026-05-05 01:02 | 40.21915 | -73.16512 | 19970 ft | 416 kts | 226° |
| 2026-05-05 01:02 | 40.19786 | -73.19054 | 19963 ft | 414 kts | 226° |
| 2026-05-05 01:02 | 40.17660 | -73.21592 | 19969 ft | 415 kts | 226° |
| 2026-05-05 01:02 | 40.15552 | -73.24106 | 19972 ft | 414 kts | 226° |
| 2026-05-05 01:03 | 40.13411 | -73.26658 | 19967 ft | 414 kts | 226° |
| 2026-05-05 01:03 | 40.11286 | -73.29188 | 19976 ft | 414 kts | 226° |
| 2026-05-05 01:03 | 40.09159 | -73.31720 | 19970 ft | 415 kts | 226° |
| 2026-05-05 01:03 | 40.07056 | -73.34219 | 19973 ft | 415 kts | 226° |
| 2026-05-05 01:04 | 40.04908 | -73.36768 | 19973 ft | 417 kts | 226° |
| 2026-05-05 01:04 | 40.00635 | -73.41832 | 19970 ft | 415 kts | 226° |
| 2026-05-05 01:04 | 39.98499 | -73.44360 | 19968 ft | 416 kts | 226° |
| 2026-05-05 01:05 | 39.96362 | -73.46889 | 19970 ft | 415 kts | 226° |
| 2026-05-05 01:05 | 39.94229 | -73.49410 | 19968 ft | 416 kts | 226° |
| 2026-05-05 01:05 | 39.92086 | -73.51939 | 19969 ft | 415 kts | 226° |
| 2026-05-05 01:05 | 39.89996 | -73.54514 | 19969 ft | 414 kts | 229° |
| 2026-05-05 01:06 | 39.88060 | -73.57246 | 19964 ft | 411 kts | 233° |
| 2026-05-05 01:06 | 39.86211 | -73.60113 | 19970 ft | 411 kts | 234° |
| 2026-05-05 01:06 | 39.84423 | -73.62994 | 19963 ft | 411 kts | 235° |
| 2026-05-05 01:06 | 39.82648 | -73.65890 | 19965 ft | 412 kts | 234° |
| 2026-05-05 01:07 | 39.80859 | -73.68804 | 19962 ft | 413 kts | 234° |
| 2026-05-05 01:07 | 39.79074 | -73.71693 | 19963 ft | 412 kts | 234° |
| 2026-05-05 01:07 | 39.77283 | -73.74574 | 19964 ft | 411 kts | 234° |
| 2026-05-05 01:07 | 39.75464 | -73.77482 | 19967 ft | 411 kts | 234° |
| 2026-05-05 01:08 | 39.73670 | -73.80335 | 19970 ft | 413 kts | 234° |
| 2026-05-05 01:08 | 39.71847 | -73.83225 | 19971 ft | 413 kts | 234° |
| 2026-05-05 01:08 | 39.70025 | -73.86105 | 19965 ft | 412 kts | 234° |
| 2026-05-05 01:08 | 39.68212 | -73.88964 | 19958 ft | 412 kts | 234° |
| 2026-05-05 01:09 | 39.66393 | -73.91827 | 19967 ft | 412 kts | 233° |
| 2026-05-05 01:09 | 39.64571 | -73.94692 | 19964 ft | 412 kts | 233° |
| 2026-05-05 01:09 | 39.62771 | -73.97520 | 19962 ft | 412 kts | 234° |
| 2026-05-05 01:09 | 39.60939 | -74.00394 | 19765 ft | 408 kts | 234° |
| 2026-05-05 01:10 | 39.59184 | -74.03137 | 19058 ft | 391 kts | 233° |
| 2026-05-05 01:10 | 39.57472 | -74.05809 | 18383 ft | 374 kts | 234° |
| 2026-05-05 01:10 | 39.55875 | -74.08303 | 17775 ft | 359 kts | 234° |
| 2026-05-05 01:10 | 39.54328 | -74.10782 | 17227 ft | 343 kts | 237° |
| 2026-05-05 01:11 | 39.53147 | -74.13368 | 16377 ft | 334 kts | 250° |
| 2026-05-05 01:11 | 39.52546 | -74.16223 | 15484 ft | 327 kts | 264° |
| 2026-05-05 01:11 | 39.52423 | -74.19081 | 14651 ft | 320 kts | 271° |
| 2026-05-05 01:11 | 39.52452 | -74.21926 | 14210 ft | 316 kts | 273° |
| 2026-05-05 01:12 | 39.52524 | -74.24772 | 14009 ft | 314 kts | 273° |
| 2026-05-05 01:12 | 39.52600 | -74.27597 | 14026 ft | 317 kts | 273° |
| 2026-05-05 01:12 | 39.52669 | -74.30448 | 14015 ft | 317 kts | 272° |
| 2026-05-05 01:12 | 39.52731 | -74.33310 | 14019 ft | 316 kts | 272° |
| 2026-05-05 01:13 | 39.52785 | -74.36123 | 14007 ft | 317 kts | 272° |
| 2026-05-05 01:13 | 39.52837 | -74.38990 | 14025 ft | 318 kts | 272° |
| 2026-05-05 01:13 | 39.52888 | -74.41837 | 14020 ft | 318 kts | 272° |
| 2026-05-05 01:13 | 39.52938 | -74.44701 | 14007 ft | 317 kts | 272° |
| 2026-05-05 01:14 | 39.52988 | -74.47547 | 14014 ft | 319 kts | 272° |
| 2026-05-05 01:14 | 39.53038 | -74.50429 | 14023 ft | 319 kts | 272° |
| 2026-05-05 01:14 | 39.53086 | -74.53263 | 14003 ft | 318 kts | 272° |
| 2026-05-05 01:14 | 39.53135 | -74.56149 | 14017 ft | 318 kts | 272° |
| 2026-05-05 01:15 | 39.53182 | -74.58992 | 14017 ft | 319 kts | 272° |
| 2026-05-05 01:15 | 39.53228 | -74.61835 | 14018 ft | 316 kts | 272° |
| 2026-05-05 01:15 | 39.53274 | -74.64693 | 14020 ft | 317 kts | 272° |
| 2026-05-05 01:15 | 39.53319 | -74.67524 | 14022 ft | 318 kts | 272° |
| 2026-05-05 01:16 | 39.53365 | -74.70426 | 14027 ft | 319 kts | 271° |
| 2026-05-05 01:16 | 39.53408 | -74.73262 | 14016 ft | 318 kts | 271° |
| 2026-05-05 01:16 | 39.53452 | -74.76135 | 14015 ft | 318 kts | 272° |
| 2026-05-05 01:16 | 39.53496 | -74.78976 | 14003 ft | 318 kts | 272° |
| 2026-05-05 01:17 | 39.53542 | -74.81850 | 14003 ft | 320 kts | 272° |
| 2026-05-05 01:17 | 39.53587 | -74.84692 | 14008 ft | 318 kts | 272° |
| 2026-05-05 01:17 | 39.53632 | -74.87562 | 14015 ft | 319 kts | 272° |
| 2026-05-05 01:17 | 39.53675 | -74.90454 | 13887 ft | 318 kts | 272° |
| 2026-05-05 01:18 | 39.53775 | -74.93280 | 13489 ft | 313 kts | 277° |
| 2026-05-05 01:18 | 39.54304 | -74.95967 | 13032 ft | 310 kts | 294° |
| 2026-05-05 01:18 | 39.55635 | -74.98148 | 12432 ft | 314 kts | 319° |
| 2026-05-05 01:18 | 39.57475 | -74.99616 | 11956 ft | 316 kts | 330° |
| 2026-05-05 01:19 | 39.59506 | -75.00764 | 11447 ft | 315 kts | 335° |
| 2026-05-05 01:19 | 39.61541 | -75.01661 | 11029 ft | 308 kts | 340° |
| 2026-05-05 01:19 | 39.63584 | -75.02268 | 10592 ft | 298 kts | 350° |
| 2026-05-05 01:19 | 39.65639 | -75.02055 | 10187 ft | 294 kts | 11° |
| 2026-05-05 01:20 | 39.67538 | -75.01190 | 9651 ft | 290 kts | 17° |
| 2026-05-05 01:20 | 39.69397 | -75.00192 | 8919 ft | 291 kts | 18° |
| 2026-05-05 01:20 | 39.71246 | -74.99211 | 8399 ft | 284 kts | 17° |
| 2026-05-05 01:20 | 39.73074 | -74.98283 | 8033 ft | 285 kts | 16° |
| 2026-05-05 01:21 | 39.74965 | -74.97362 | 7634 ft | 290 kts | 16° |
| 2026-05-05 01:21 | 39.76842 | -74.96458 | 7199 ft | 285 kts | 16° |
| 2026-05-05 01:21 | 39.78673 | -74.95578 | 6607 ft | 283 kts | 16° |
| 2026-05-05 01:21 | 39.80523 | -74.94693 | 5827 ft | 289 kts | 17° |
| 2026-05-05 01:22 | 39.82360 | -74.93587 | 5084 ft | 296 kts | 30° |
| 2026-05-05 01:22 | 39.83855 | -74.91722 | 4340 ft | 302 kts | 60° |
| 2026-05-05 01:22 | 39.84654 | -74.89240 | 3627 ft | 300 kts | 74° |
| 2026-05-05 01:22 | 39.85560 | -74.86821 | 3025 ft | 298 kts | 52° |
| 2026-05-05 01:23 | 39.87087 | -74.85185 | 3000 ft | 283 kts | 23° |
| 2026-05-05 01:23 | 39.89004 | -74.84588 | 3031 ft | 283 kts | 355° |
| 2026-05-05 01:23 | 39.90874 | -74.85103 | 2983 ft | 268 kts | 328° |
| 2026-05-05 01:23 | 39.92213 | -74.86506 | 3008 ft | 234 kts | 300° |
| 2026-05-05 01:24 | 39.92961 | -74.88249 | 2997 ft | 208 kts | 288° |
| 2026-05-05 01:24 | 39.93401 | -74.89911 | 2998 ft | 182 kts | 272° |
| 2026-05-05 01:24 | 39.93425 | -74.91507 | 3009 ft | 179 kts | 259° |
| 2026-05-05 01:24 | 39.93236 | -74.93130 | 3001 ft | 178 kts | 255° |
| 2026-05-05 01:25 | 39.92974 | -74.94686 | 3003 ft | 178 kts | 252° |
| 2026-05-05 01:25 | 39.92675 | -74.96264 | 3004 ft | 178 kts | 252° |
| 2026-05-05 01:25 | 39.92379 | -74.97788 | 3000 ft | 169 kts | 251° |
| 2026-05-05 01:25 | 39.92091 | -74.99258 | 3002 ft | 167 kts | 251° |
| 2026-05-05 01:26 | 39.91799 | -75.00733 | 3014 ft | 166 kts | 251° |
| 2026-05-05 01:26 | 39.91517 | -75.02165 | 3000 ft | 161 kts | 251° |
| 2026-05-05 01:26 | 39.91246 | -75.03535 | 2907 ft | 155 kts | 250° |
| 2026-05-05 01:26 | 39.90984 | -75.04864 | 2723 ft | 154 kts | 250° |
| 2026-05-05 01:27 | 39.90706 | -75.06248 | 2508 ft | 156 kts | 250° |
| 2026-05-05 01:27 | 39.90452 | -75.07561 | 2271 ft | 145 kts | 251° |
| 2026-05-05 01:27 | 39.90228 | -75.08804 | 2084 ft | 142 kts | 250° |
| 2026-05-05 01:27 | 39.89994 | -75.10098 | 1908 ft | 149 kts | 250° |
| 2026-05-05 01:28 | 39.89747 | -75.11430 | 1728 ft | 154 kts | 250° |
| 2026-05-05 01:28 | 39.89488 | -75.12794 | 1546 ft | 158 kts | 250° |
| 2026-05-05 01:28 | 39.89218 | -75.14185 | 1317 ft | 155 kts | 250° |
| 2026-05-05 01:28 | 39.88953 | -75.15493 | 1076 ft | 148 kts | 250° |
| 2026-05-05 01:29 | 39.88683 | -75.16798 | 869 ft | 153 kts | 250° |
| 2026-05-05 01:29 | 39.88379 | -75.18139 | 688 ft | 151 kts | 250° |
| 2026-05-05 01:29 | 39.88108 | -75.19378 | 489 ft | 146 kts | 251° |
| 2026-05-05 01:29 | 39.87853 | -75.20631 | 292 ft | 141 kts | 252° |
| 2026-05-05 01:30 | 39.87605 | -75.21876 | 114 ft | 141 kts | 253° |
| 2026-05-05 01:30 | 39.87362 | -75.23097 | 15 ft | 131 kts | 253° |
| 2026-05-05 01:30 | 39.87184 | -75.23980 | 14 ft | 81 kts | 256° |
| 2026-05-05 01:30 | 39.87077 | -75.24521 | 16 ft | 45 kts | 256° |
| 2026-05-05 01:31 | 39.87041 | -75.24738 | 17 ft | 13 kts | 274° |
| 2026-05-05 01:31 | 39.87096 | -75.24830 | 17 ft | 13 kts | 353° |
| 2026-05-05 01:31 | 39.87149 | -75.24745 | 17 ft | 13 kts | 75° |
| 2026-05-05 01:31 | 39.87172 | -75.24627 | 16 ft | 14 kts | 76° |
| 2026-05-05 01:32 | 39.87208 | -75.24534 | 14 ft | 11 kts | 21° |
| 2026-05-05 01:32 | 39.87284 | -75.24546 | 14 ft | 11 kts | 347° |
| 2026-05-05 01:32 | 39.87347 | -75.24564 | 14 ft | 6 kts | 349° |
| 2026-05-05 01:32 | 39.87376 | -75.24541 | 14 ft | 4 kts | 77° |
| 2026-05-05 01:33 | 39.87377 | -75.24515 | 14 ft | 2 kts | 92° |
| 2026-05-05 01:33 | 39.87377 | -75.24509 | 14 ft | 0 kts | 92° |